首页
METAR-TAF:

METAR-TAF

机场 :

哈茨菲尔德-杰克逊亚特兰大国际机场

亚特兰大, 喬治亞, 美国

纬度: 33-38-25N, 经度: 084-25-37W, 海拔: 313米

当前天气观测

该预报发布于37分钟前的05:52 UTC
风速5节,风向西转西北
温度 26°C
湿度 58%
气压 1019 hPa
能見度: 16.1公里
天空无云

METAR: KATL 270552Z 30005KT 10SM CLR 26/17 A3009 RMK AO2 SLP178 T02610172 10317 20256 58001

时间: 02:29 (06:29 UTC)

预报

该预报发布于1小时和7分钟前的05:22 UTC
预报有效从27日的 06点(UTC)到 28日的 12点(UTC)
风速5节,风向西北
能見度: 10公里
天空无云
从 27日的 1500点(UTC)
风速9节,风向西转西北
能見度: 10公里
少量云层高于6000英尺
散云层高于25000英尺
从 27日的 1900点(UTC)
风速10节,风向西
能見度: 10公里
散云层高于7000英尺
散云层高于25000英尺
从 28日的 0100点(UTC)
风速5节,风向西
能見度: 10公里
散云层高于25000英尺

TAF: KATL 270522Z 2706/2812 32005KT P6SM SKC FM271500 30009KT P6SM FEW060 SCT250 FM271900 28010KT P6SM SCT070 SCT250 FM280100 26005KT P6SM SCT250

超过4000个机场的气象观测和天气预报(METAR&TAF报告)。

可查询的气象台以黄色和红色小点在地图上表示。

将鼠标移到小点上方,可查看气象台名称。

然后点击查看天气观测和预报。

如需切换地图:点击带黑十字的绿色按钮放大地图;点击带横线的绿色按钮缩小地图;或者点击绿色箭头查看邻近地区的地图。


METAR-TAF: